sensor_id;sensor_type;location;lat;lon;timestamp;pressure;altitude;pressure_sealevel;temperature;humidity
54994;BME280;40891;47.242;8.648;2023-02-23T00:01:54;96083.91;;;10.50;100.00
54994;BME280;40891;47.242;8.648;2023-02-23T00:04:20;96088.72;;;10.58;100.00
54994;BME280;40891;47.242;8.648;2023-02-23T00:06:45;96082.06;;;10.47;100.00
54994;BME280;40891;47.242;8.648;2023-02-23T00:09:11;96078.50;;;10.46;100.00
54994;BME280;40891;47.242;8.648;2023-02-23T00:11:50;96078.19;;;10.44;100.00
54994;BME280;40891;47.242;8.648;2023-02-23T00:14:16;96082.81;;;10.38;100.00
54994;BME280;40891;47.242;8.648;2023-02-23T00:16:42;96081.53;;;10.30;100.00
54994;BME280;40891;47.242;8.648;2023-02-23T00:19:10;96084.47;;;10.27;100.00
54994;BME280;40891;47.242;8.648;2023-02-23T00:21:39;96084.28;;;10.21;100.00
54994;BME280;40891;47.242;8.648;2023-02-23T00:24:07;96079.66;;;10.18;100.00
54994;BME280;40891;47.242;8.648;2023-02-23T00:26:35;96073.78;;;10.16;100.00
54994;BME280;40891;47.242;8.648;2023-02-23T00:29:03;96082.41;;;10.18;100.00
54994;BME280;40891;47.242;8.648;2023-02-23T00:31:29;96088.16;;;10.23;100.00
54994;BME280;40891;47.242;8.648;2023-02-23T00:33:57;96084.91;;;10.25;100.00
54994;BME280;40891;47.242;8.648;2023-02-23T00:36:26;96078.28;;;10.22;100.00
54994;BME280;40891;47.242;8.648;2023-02-23T00:38:53;96077.97;;;10.20;100.00
54994;BME280;40891;47.242;8.648;2023-02-23T00:41:19;96077.34;;;10.16;100.00
54994;BME280;40891;47.242;8.648;2023-02-23T00:43:47;96079.81;;;10.23;100.00
54994;BME280;40891;47.242;8.648;2023-02-23T00:46:15;96079.66;;;10.18;100.00
54994;BME280;40891;47.242;8.648;2023-02-23T00:48:42;96084.28;;;10.21;100.00
54994;BME280;40891;47.242;8.648;2023-02-23T00:51:08;96084.25;;;10.12;100.00
54994;BME280;40891;47.242;8.648;2023-02-23T00:53:33;96083.25;;;10.06;100.00
54994;BME280;40891;47.242;8.648;2023-02-23T00:55:59;96073.09;;;10.03;100.00
54994;BME280;40891;47.242;8.648;2023-02-23T00:58:25;96080.75;;;9.99;100.00
54994;BME280;40891;47.242;8.648;2023-02-23T01:00:51;96069.63;;;9.90;100.00
54994;BME280;40891;47.242;8.648;2023-02-23T01:03:17;96075.97;;;9.90;100.00
54994;BME280;40891;47.242;8.648;2023-02-23T01:05:43;96075.50;;;9.92;100.00
54994;BME280;40891;47.242;8.648;2023-02-23T01:08:09;96076.41;;;9.89;100.00
54994;BME280;40891;47.242;8.648;2023-02-23T01:10:42;96070.59;;;9.96;100.00
54994;BME280;40891;47.242;8.648;2023-02-23T01:13:09;96070.25;;;9.94;100.00
54994;BME280;40891;47.242;8.648;2023-02-23T01:15:39;96073.19;;;9.90;100.00
54994;BME280;40891;47.242;8.648;2023-02-23T01:18:05;96066.25;;;9.95;100.00
54994;BME280;40891;47.242;8.648;2023-02-23T01:20:33;96065.75;;;9.87;100.00
54994;BME280;40891;47.242;8.648;2023-02-23T01:23:01;96072.72;;;9.92;100.00
54994;BME280;40891;47.242;8.648;2023-02-23T01:25:26;96072.09;;;9.88;100.00
54994;BME280;40891;47.242;8.648;2023-02-23T01:27:53;96067.09;;;9.74;100.00
54994;BME280;40891;47.242;8.648;2023-02-23T01:30:19;96072.63;;;9.74;100.00
54994;BME280;40891;47.242;8.648;2023-02-23T01:32:45;96069.28;;;9.79;100.00
54994;BME280;40891;47.242;8.648;2023-02-23T01:35:11;96067.72;;;9.78;100.00
54994;BME280;40891;47.242;8.648;2023-02-23T01:37:41;96063.84;;;9.75;100.00
54994;BME280;40891;47.242;8.648;2023-02-23T01:40:16;96056.25;;;9.67;100.00
54994;BME280;40891;47.242;8.648;2023-02-23T01:42:54;96062.13;;;9.69;100.00
54994;BME280;40891;47.242;8.648;2023-02-23T01:47:51;96048.88;;;9.73;100.00
54994;BME280;40891;47.242;8.648;2023-02-23T01:50:17;96051.97;;;9.75;100.00
54994;BME280;40891;47.242;8.648;2023-02-23T01:52:44;96045.41;;;9.59;100.00
54994;BME280;40891;47.242;8.648;2023-02-23T01:55:12;96044.19;;;9.61;100.00
54994;BME280;40891;47.242;8.648;2023-02-23T01:57:39;96044.50;;;9.63;100.00
54994;BME280;40891;47.242;8.648;2023-02-23T02:00:07;96053.78;;;9.69;100.00
54994;BME280;40891;47.242;8.648;2023-02-23T02:02:39;96043.09;;;9.58;100.00
54994;BME280;40891;47.242;8.648;2023-02-23T02:05:05;96049.56;;;9.55;100.00
54994;BME280;40891;47.242;8.648;2023-02-23T02:07:41;96040.44;;;9.54;100.00
54994;BME280;40891;47.242;8.648;2023-02-23T02:10:10;96036.38;;;9.46;100.00
54994;BME280;40891;47.242;8.648;2023-02-23T02:12:44;96040.53;;;9.42;100.00
54994;BME280;40891;47.242;8.648;2023-02-23T02:15:11;96034.22;;;9.41;100.00
54994;BME280;40891;47.242;8.648;2023-02-23T02:24:47;96033.03;;;9.51;100.00
54994;BME280;40891;47.242;8.648;2023-02-23T02:27:13;96030.84;;;9.46;100.00
54994;BME280;40891;47.242;8.648;2023-02-23T02:35:59;96026.84;;;9.47;100.00
54994;BME280;40891;47.242;8.648;2023-02-23T02:41:41;96016.91;;;9.37;100.00
54994;BME280;40891;47.242;8.648;2023-02-23T02:44:21;96023.06;;;9.63;100.00
54994;BME280;40891;47.242;8.648;2023-02-23T02:46:56;96020.72;;;9.52;100.00
54994;BME280;40891;47.242;8.648;2023-02-23T02:49:39;96026.53;;;9.45;100.00
54994;BME280;40891;47.242;8.648;2023-02-23T02:54:44;96024.22;;;9.44;100.00
54994;BME280;40891;47.242;8.648;2023-02-23T02:57:12;96020.50;;;9.47;100.00
54994;BME280;40891;47.242;8.648;2023-02-23T02:59:44;96024.38;;;9.49;100.00
54994;BME280;40891;47.242;8.648;2023-02-23T03:02:31;96019.00;;;9.46;100.00
54994;BME280;40891;47.242;8.648;2023-02-23T03:05:18;96025.28;;;9.46;100.00
54994;BME280;40891;47.242;8.648;2023-02-23T03:11:05;96021.19;;;9.51;100.00
54994;BME280;40891;47.242;8.648;2023-02-23T03:14:00;96014.53;;;9.48;100.00
54994;BME280;40891;47.242;8.648;2023-02-23T03:17:15;96015.69;;;9.38;100.00
54994;BME280;40891;47.242;8.648;2023-02-23T03:23:24;96023.56;;;9.40;100.00
54994;BME280;40891;47.242;8.648;2023-02-23T03:29:28;96015.38;;;9.36;100.00
54994;BME280;40891;47.242;8.648;2023-02-23T03:32:30;96022.47;;;9.37;100.00
54994;BME280;40891;47.242;8.648;2023-02-23T03:35:23;96018.75;;;9.31;100.00
54994;BME280;40891;47.242;8.648;2023-02-23T03:38:12;96008.44;;;9.32;100.00
54994;BME280;40891;47.242;8.648;2023-02-23T03:41:00;96016.56;;;9.26;100.00
54994;BME280;40891;47.242;8.648;2023-02-23T03:43:54;96013.16;;;9.22;100.00
54994;BME280;40891;47.242;8.648;2023-02-23T03:46:41;96021.78;;;9.24;100.00
54994;BME280;40891;47.242;8.648;2023-02-23T03:49:28;96018.13;;;9.27;100.00
54994;BME280;40891;47.242;8.648;2023-02-23T03:52:19;96018.13;;;9.27;100.00
54994;BME280;40891;47.242;8.648;2023-02-23T03:55:10;96018.22;;;9.24;100.00
54994;BME280;40891;47.242;8.648;2023-02-23T03:57:58;96016.81;;;9.19;100.00
54994;BME280;40891;47.242;8.648;2023-02-23T04:00:46;96016.03;;;9.19;100.00
54994;BME280;40891;47.242;8.648;2023-02-23T04:03:34;96015.47;;;9.24;100.00
54994;BME280;40891;47.242;8.648;2023-02-23T04:06:22;96018.53;;;9.26;100.00
54994;BME280;40891;47.242;8.648;2023-02-23T04:09:07;96016.22;;;9.24;100.00
54994;BME280;40891;47.242;8.648;2023-02-23T04:17:55;96013.91;;;9.23;100.00
54994;BME280;40891;47.242;8.648;2023-02-23T04:20:21;96013.78;;;9.26;100.00
54994;BME280;40891;47.242;8.648;2023-02-23T04:22:47;96013.25;;;9.19;100.00
54994;BME280;40891;47.242;8.648;2023-02-23T04:25:14;96020.81;;;9.18;100.00
54994;BME280;40891;47.242;8.648;2023-02-23T04:27:39;96016.50;;;9.17;100.00
54994;BME280;40891;47.242;8.648;2023-02-23T04:30:05;96024.94;;;9.14;100.00
54994;BME280;40891;47.242;8.648;2023-02-23T04:32:31;96026.97;;;9.13;100.00
54994;BME280;40891;47.242;8.648;2023-02-23T04:34:56;96022.22;;;9.23;100.00
54994;BME280;40891;47.242;8.648;2023-02-23T04:37:22;96016.44;;;9.30;100.00
54994;BME280;40891;47.242;8.648;2023-02-23T04:39:47;96015.50;;;9.11;100.00
54994;BME280;40891;47.242;8.648;2023-02-23T04:42:15;96020.44;;;9.07;100.00
54994;BME280;40891;47.242;8.648;2023-02-23T04:44:41;96019.47;;;9.01;100.00
54994;BME280;40891;47.242;8.648;2023-02-23T04:47:06;96015.47;;;9.02;100.00
54994;BME280;40891;47.242;8.648;2023-02-23T04:49:31;96015.19;;;9.09;100.00
54994;BME280;40891;47.242;8.648;2023-02-23T04:51:57;96008.63;;;8.94;100.00
54994;BME280;40891;47.242;8.648;2023-02-23T04:54:22;96010.94;;;8.96;100.00
54994;BME280;40891;47.242;8.648;2023-02-23T04:56:48;96013.59;;;8.99;100.00
54994;BME280;40891;47.242;8.648;2023-02-23T04:59:13;96015.91;;;9.01;100.00
54994;BME280;40891;47.242;8.648;2023-02-23T05:01:38;96018.22;;;9.02;100.00
54994;BME280;40891;47.242;8.648;2023-02-23T05:04:04;96022.88;;;9.05;100.00
54994;BME280;40891;47.242;8.648;2023-02-23T05:06:30;96011.84;;;9.14;100.00
54994;BME280;40891;47.242;8.648;2023-02-23T05:08:55;96015.97;;;9.10;100.00
54994;BME280;40891;47.242;8.648;2023-02-23T05:11:20;96018.91;;;9.06;100.00
54994;BME280;40891;47.242;8.648;2023-02-23T05:13:46;96015.34;;;9.06;100.00
54994;BME280;40891;47.242;8.648;2023-02-23T05:16:11;96015.13;;;9.22;100.00
54994;BME280;40891;47.242;8.648;2023-02-23T05:18:36;96015.13;;;9.22;100.00
54994;BME280;40891;47.242;8.648;2023-02-23T05:21:04;96009.06;;;9.14;100.00
54994;BME280;40891;47.242;8.648;2023-02-23T05:23:32;96007.19;;;9.11;100.00
54994;BME280;40891;47.242;8.648;2023-02-23T05:26:08;96010.75;;;9.12;100.00
54994;BME280;40891;47.242;8.648;2023-02-23T05:28:35;96012.28;;;9.34;100.00
54994;BME280;40891;47.242;8.648;2023-02-23T05:31:01;96008.59;;;9.16;100.00
54994;BME280;40891;47.242;8.648;2023-02-23T05:33:28;96002.44;;;9.12;100.00
54994;BME280;40891;47.242;8.648;2023-02-23T05:35:54;96006.25;;;9.05;100.00
54994;BME280;40891;47.242;8.648;2023-02-23T05:38:19;96002.06;;;9.01;100.00
54994;BME280;40891;47.242;8.648;2023-02-23T05:40:46;96007.84;;;9.15;100.00
54994;BME280;40891;47.242;8.648;2023-02-23T05:43:11;96008.13;;;9.08;100.00
54994;BME280;40891;47.242;8.648;2023-02-23T05:45:40;96004.88;;;9.10;100.00
54994;BME280;40891;47.242;8.648;2023-02-23T05:48:07;96012.75;;;9.11;100.00
54994;BME280;40891;47.242;8.648;2023-02-23T05:50:33;96015.41;;;9.15;100.00
54994;BME280;40891;47.242;8.648;2023-02-23T05:52:58;96024.28;;;9.10;100.00
54994;BME280;40891;47.242;8.648;2023-02-23T05:55:24;96014.88;;;9.07;100.00
54994;BME280;40891;47.242;8.648;2023-02-23T05:57:49;96022.63;;;9.12;100.00
54994;BME280;40891;47.242;8.648;2023-02-23T06:00:15;96010.75;;;9.12;100.00
54994;BME280;40891;47.242;8.648;2023-02-23T06:02:40;96009.97;;;9.11;100.00
54994;BME280;40891;47.242;8.648;2023-02-23T06:05:07;96005.97;;;9.12;100.00
54994;BME280;40891;47.242;8.648;2023-02-23T06:07:32;96010.91;;;9.08;100.00
54994;BME280;40891;47.242;8.648;2023-02-23T06:09:58;96014.09;;;9.07;100.00
54994;BME280;40891;47.242;8.648;2023-02-23T06:12:24;96010.56;;;9.06;100.00
54994;BME280;40891;47.242;8.648;2023-02-23T06:14:49;96005.66;;;9.10;100.00
54994;BME280;40891;47.242;8.648;2023-02-23T06:17:16;96015.03;;;9.04;100.00
54994;BME280;40891;47.242;8.648;2023-02-23T06:19:41;96017.78;;;9.04;100.00
54994;BME280;40891;47.242;8.648;2023-02-23T06:22:07;96016.69;;;9.01;100.00
54994;BME280;40891;47.242;8.648;2023-02-23T06:24:32;96010.38;;;9.01;100.00
54994;BME280;40891;47.242;8.648;2023-02-23T06:26:58;96017.13;;;9.00;100.00
54994;BME280;40891;47.242;8.648;2023-02-23T06:29:23;96015.78;;;9.04;100.00
54994;BME280;40891;47.242;8.648;2023-02-23T06:31:49;96024.28;;;9.10;100.00
54994;BME280;40891;47.242;8.648;2023-02-23T06:34:14;96017.97;;;9.09;100.00
54994;BME280;40891;47.242;8.648;2023-02-23T06:36:40;96022.47;;;9.16;100.00
54994;BME280;40891;47.242;8.648;2023-02-23T06:39:06;96020.38;;;9.20;100.00
54994;BME280;40891;47.242;8.648;2023-02-23T06:41:31;96027.00;;;9.22;100.00
54994;BME280;40891;47.242;8.648;2023-02-23T06:43:57;96033.13;;;9.17;100.00
54994;BME280;40891;47.242;8.648;2023-02-23T06:46:23;96033.78;;;9.21;100.00
54994;BME280;40891;47.242;8.648;2023-02-23T06:48:49;96029.22;;;9.27;100.00
54994;BME280;40891;47.242;8.648;2023-02-23T06:51:14;96034.22;;;9.20;100.00
54994;BME280;40891;47.242;8.648;2023-02-23T06:53:40;96033.91;;;9.18;100.00
54994;BME280;40891;47.242;8.648;2023-02-23T06:56:05;96030.38;;;9.17;100.00
54994;BME280;40891;47.242;8.648;2023-02-23T06:58:31;96031.56;;;9.16;100.00
54994;BME280;40891;47.242;8.648;2023-02-23T07:00:57;96034.81;;;9.15;100.00
54994;BME280;40891;47.242;8.648;2023-02-23T07:03:24;96037.13;;;9.16;100.00
54994;BME280;40891;47.242;8.648;2023-02-23T07:05:50;96045.13;;;9.14;100.00
54994;BME280;40891;47.242;8.648;2023-02-23T07:08:17;96038.22;;;9.19;100.00
54994;BME280;40891;47.242;8.648;2023-02-23T07:10:43;96037.97;;;9.26;100.00
54994;BME280;40891;47.242;8.648;2023-02-23T07:13:08;96044.81;;;9.34;100.00
54994;BME280;40891;47.242;8.648;2023-02-23T07:15:35;96042.97;;;9.40;100.00
54994;BME280;40891;47.242;8.648;2023-02-23T07:18:01;96046.72;;;9.46;100.00
54994;BME280;40891;47.242;8.648;2023-02-23T07:20:27;96049.56;;;9.55;100.00
54994;BME280;40891;47.242;8.648;2023-02-23T07:22:52;96047.72;;;9.61;100.00
54994;BME280;40891;47.242;8.648;2023-02-23T07:25:19;96043.59;;;9.66;100.00
54994;BME280;40891;47.242;8.648;2023-02-23T07:27:45;96044.25;;;9.70;100.00
54994;BME280;40891;47.242;8.648;2023-02-23T07:30:11;96053.19;;;9.74;100.00
54994;BME280;40891;47.242;8.648;2023-02-23T07:32:37;96049.53;;;9.77;100.00
54994;BME280;40891;47.242;8.648;2023-02-23T07:35:03;96046.56;;;9.71;100.00
54994;BME280;40891;47.242;8.648;2023-02-23T07:37:29;96056.09;;;9.70;100.00
54994;BME280;40891;47.242;8.648;2023-02-23T07:39:54;96057.25;;;9.82;100.00
54994;BME280;40891;47.242;8.648;2023-02-23T07:42:19;96057.25;;;9.82;100.00
54994;BME280;40891;47.242;8.648;2023-02-23T07:44:45;96058.28;;;9.75;100.00
54994;BME280;40891;47.242;8.648;2023-02-23T07:47:10;96058.88;;;9.70;100.00
54994;BME280;40891;47.242;8.648;2023-02-23T07:49:35;96056.09;;;9.70;100.00
54994;BME280;40891;47.242;8.648;2023-02-23T07:52:01;96062.03;;;9.81;100.00
54994;BME280;40891;47.242;8.648;2023-02-23T07:54:26;96063.44;;;9.86;100.00
54994;BME280;40891;47.242;8.648;2023-02-23T07:56:52;96059.13;;;9.94;100.00
54994;BME280;40891;47.242;8.648;2023-02-23T07:59:17;96060.22;;;9.96;100.00
54994;BME280;40891;47.242;8.648;2023-02-23T08:01:43;96061.31;;;9.99;100.00
54994;BME280;40891;47.242;8.648;2023-02-23T08:04:08;96066.94;;;10.08;100.00
54994;BME280;40891;47.242;8.648;2023-02-23T08:06:34;96070.22;;;10.15;100.00
54994;BME280;40891;47.242;8.648;2023-02-23T08:09:00;96064.75;;;10.34;100.00
54994;BME280;40891;47.242;8.648;2023-02-23T08:11:26;96063.69;;;10.49;100.00
54994;BME280;40891;47.242;8.648;2023-02-23T08:13:53;96067.44;;;10.64;100.00
54994;BME280;40891;47.242;8.648;2023-02-23T08:16:20;96064.34;;;10.71;100.00
54994;BME280;40891;47.242;8.648;2023-02-23T08:18:46;96079.16;;;10.68;100.00
54994;BME280;40891;47.242;8.648;2023-02-23T08:21:11;96071.13;;;10.70;100.00
54994;BME280;40891;47.242;8.648;2023-02-23T08:23:37;96072.22;;;10.64;100.00
54994;BME280;40891;47.242;8.648;2023-02-23T08:26:02;96073.72;;;10.56;100.00
54994;BME280;40891;47.242;8.648;2023-02-23T08:28:29;96076.81;;;10.49;100.00
54994;BME280;40891;47.242;8.648;2023-02-23T08:30:55;96062.91;;;10.49;100.00
54994;BME280;40891;47.242;8.648;2023-02-23T08:33:20;96064.47;;;10.50;100.00
54994;BME280;40891;47.242;8.648;2023-02-23T08:35:46;96064.16;;;10.57;100.00
54994;BME280;40891;47.242;8.648;2023-02-23T08:38:11;96060.91;;;10.58;100.00
54994;BME280;40891;47.242;8.648;2023-02-23T08:40:37;96062.78;;;10.61;100.00
54994;BME280;40891;47.242;8.648;2023-02-23T08:43:02;96061.28;;;10.69;100.00
54994;BME280;40891;47.242;8.648;2023-02-23T08:45:27;96064.19;;;10.84;100.00
54994;BME280;40891;47.242;8.648;2023-02-23T08:47:54;96067.94;;;10.81;100.00
54994;BME280;40891;47.242;8.648;2023-02-23T08:50:19;96071.50;;;11.00;100.00
54994;BME280;40891;47.242;8.648;2023-02-23T08:52:45;96071.47;;;11.18;99.03
54994;BME280;40891;47.242;8.648;2023-02-23T08:55:10;96060.66;;;11.29;98.30
54994;BME280;40891;47.242;8.648;2023-02-23T08:57:38;96066.34;;;11.43;99.19
54994;BME280;40891;47.242;8.648;2023-02-23T09:00:04;96068.06;;;11.68;95.41
54994;BME280;40891;47.242;8.648;2023-02-23T09:02:39;96063.84;;;11.82;95.16
54994;BME280;40891;47.242;8.648;2023-02-23T09:05:06;96063.88;;;12.14;93.49
54994;BME280;40891;47.242;8.648;2023-02-23T09:07:32;96071.09;;;12.30;92.60
54994;BME280;40891;47.242;8.648;2023-02-23T09:09:57;96069.28;;;12.51;89.45
54994;BME280;40891;47.242;8.648;2023-02-23T09:12:23;96064.84;;;12.68;88.54
54994;BME280;40891;47.242;8.648;2023-02-23T09:14:48;96059.19;;;13.01;85.23
54994;BME280;40891;47.242;8.648;2023-02-23T09:17:16;96066.00;;;13.23;84.18
54994;BME280;40891;47.242;8.648;2023-02-23T09:19:41;96065.56;;;13.25;80.85
54994;BME280;40891;47.242;8.648;2023-02-23T09:22:07;96068.16;;;13.05;81.18
54994;BME280;40891;47.242;8.648;2023-02-23T09:24:32;96068.72;;;12.94;82.97
54994;BME280;40891;47.242;8.648;2023-02-23T09:26:59;96067.63;;;12.68;83.55
54994;BME280;40891;47.242;8.648;2023-02-23T09:29:25;96068.25;;;12.39;85.79
54994;BME280;40891;47.242;8.648;2023-02-23T09:31:50;96083.00;;;12.30;86.60
54994;BME280;40891;47.242;8.648;2023-02-23T09:34:18;96073.66;;;12.10;87.63
54994;BME280;40891;47.242;8.648;2023-02-23T09:36:43;96072.59;;;11.98;88.01
54994;BME280;40891;47.242;8.648;2023-02-23T09:39:08;96071.53;;;11.96;88.55
54994;BME280;40891;47.242;8.648;2023-02-23T09:41:55;96077.84;;;12.05;88.30
54994;BME280;40891;47.242;8.648;2023-02-23T09:47:36;96078.13;;;12.49;86.63
54994;BME280;40891;47.242;8.648;2023-02-23T09:50:14;96068.22;;;12.72;85.12
54994;BME280;40891;47.242;8.648;2023-02-23T09:52:43;96057.06;;;13.19;81.37
54994;BME280;40891;47.242;8.648;2023-02-23T09:55:12;96056.16;;;13.66;79.47
54994;BME280;40891;47.242;8.648;2023-02-23T09:57:40;96052.66;;;14.15;77.82
54994;BME280;40891;47.242;8.648;2023-02-23T10:00:22;96059.38;;;15.07;72.13
54994;BME280;40891;47.242;8.648;2023-02-23T10:03:07;96050.78;;;15.56;68.43
54994;BME280;40891;47.242;8.648;2023-02-23T10:05:40;96047.22;;;16.81;64.72
54994;BME280;40891;47.242;8.648;2023-02-23T10:10:47;96018.75;;;21.45;48.17
54994;BME280;40891;47.242;8.648;2023-02-23T10:16:28;96003.84;;;23.43;41.15
54994;BME280;40891;47.242;8.648;2023-02-23T10:19:08;95997.50;;;23.63;40.19
54994;BME280;40891;47.242;8.648;2023-02-23T10:21:42;95991.41;;;24.75;37.25
54994;BME280;40891;47.242;8.648;2023-02-23T10:24:34;95989.34;;;25.32;35.54
54994;BME280;40891;47.242;8.648;2023-02-23T10:27:16;95981.44;;;25.74;34.32
54994;BME280;40891;47.242;8.648;2023-02-23T10:29:48;95983.50;;;25.74;34.70
54994;BME280;40891;47.242;8.648;2023-02-23T10:32:49;95982.16;;;26.25;34.23
54994;BME280;40891;47.242;8.648;2023-02-23T10:35:18;95979.75;;;26.82;31.65
54994;BME280;40891;47.242;8.648;2023-02-23T10:37:45;95982.41;;;26.88;32.12
54994;BME280;40891;47.242;8.648;2023-02-23T10:40:19;95972.88;;;26.70;32.71
54994;BME280;40891;47.242;8.648;2023-02-23T10:42:47;95977.97;;;27.17;31.47
54994;BME280;40891;47.242;8.648;2023-02-23T10:45:18;95977.06;;;26.92;31.14
54994;BME280;40891;47.242;8.648;2023-02-23T10:47:59;95967.28;;;27.33;31.39
54994;BME280;40891;47.242;8.648;2023-02-23T10:50:26;95963.78;;;28.04;30.05
54994;BME280;40891;47.242;8.648;2023-02-23T10:52:58;95957.66;;;29.07;27.69
54994;BME280;40891;47.242;8.648;2023-02-23T10:55:29;95965.28;;;28.38;28.37
54994;BME280;40891;47.242;8.648;2023-02-23T10:58:09;95955.97;;;28.37;28.95
54994;BME280;40891;47.242;8.648;2023-02-23T11:03:31;95959.22;;;28.58;28.82
54994;BME280;40891;47.242;8.648;2023-02-23T11:05:56;95951.78;;;28.80;27.60
54994;BME280;40891;47.242;8.648;2023-02-23T11:13:52;95947.59;;;29.23;28.24
54994;BME280;40891;47.242;8.648;2023-02-23T11:16:27;95944.09;;;29.93;26.20
54994;BME280;40891;47.242;8.648;2023-02-23T11:18:59;95936.75;;;29.99;26.38
54994;BME280;40891;47.242;8.648;2023-02-23T11:21:36;95931.16;;;30.01;26.78
54994;BME280;40891;47.242;8.648;2023-02-23T11:26:41;95920.06;;;30.87;25.70
54994;BME280;40891;47.242;8.648;2023-02-23T11:29:20;95927.25;;;31.34;24.62
54994;BME280;40891;47.242;8.648;2023-02-23T11:31:52;95920.72;;;31.15;25.44
54994;BME280;40891;47.242;8.648;2023-02-23T11:34:26;95907.44;;;31.86;23.86
54994;BME280;40891;47.242;8.648;2023-02-23T11:37:04;95918.41;;;30.84;24.72
54994;BME280;40891;47.242;8.648;2023-02-23T11:39:30;95911.81;;;31.11;25.41
54994;BME280;40891;47.242;8.648;2023-02-23T11:42:14;95910.94;;;31.27;24.44
54994;BME280;40891;47.242;8.648;2023-02-23T11:44:40;95905.16;;;30.99;25.16
54994;BME280;40891;47.242;8.648;2023-02-23T11:47:14;95904.13;;;31.32;24.14
54994;BME280;40891;47.242;8.648;2023-02-23T11:49:43;95908.50;;;31.33;24.61
54994;BME280;40891;47.242;8.648;2023-02-23T11:52:14;95904.53;;;31.00;24.63
54994;BME280;40891;47.242;8.648;2023-02-23T11:54:47;95896.84;;;31.79;23.33
54994;BME280;40891;47.242;8.648;2023-02-23T11:57:37;95893.16;;;32.48;22.50
54994;BME280;40891;47.242;8.648;2023-02-23T12:00:21;95885.69;;;32.64;22.17
54994;BME280;40891;47.242;8.648;2023-02-23T12:02:55;95881.47;;;32.24;22.47
54994;BME280;40891;47.242;8.648;2023-02-23T12:05:30;95891.75;;;30.74;24.24
54994;BME280;40891;47.242;8.648;2023-02-23T12:08:04;95887.13;;;30.88;24.65
54994;BME280;40891;47.242;8.648;2023-02-23T12:10:41;95882.59;;;31.91;22.95
54994;BME280;40891;47.242;8.648;2023-02-23T12:13:10;95880.72;;;32.14;23.63
54994;BME280;40891;47.242;8.648;2023-02-23T12:18:28;95865.28;;;32.81;22.29
54994;BME280;40891;47.242;8.648;2023-02-23T12:21:01;95863.13;;;33.66;20.52
54994;BME280;40891;47.242;8.648;2023-02-23T12:23:30;95863.78;;;33.43;21.63
54994;BME280;40891;47.242;8.648;2023-02-23T12:26:03;95871.63;;;33.31;21.77
54994;BME280;40891;47.242;8.648;2023-02-23T12:28:41;95867.25;;;32.57;22.67
54994;BME280;40891;47.242;8.648;2023-02-23T12:31:27;95861.44;;;32.88;21.35
54994;BME280;40891;47.242;8.648;2023-02-23T12:34:01;95849.97;;;33.75;20.61
54994;BME280;40891;47.242;8.648;2023-02-23T12:36:39;95855.13;;;33.65;20.50
54994;BME280;40891;47.242;8.648;2023-02-23T12:39:15;95857.25;;;34.20;20.32
54994;BME280;40891;47.242;8.648;2023-02-23T12:42:03;95854.50;;;34.22;20.30
54994;BME280;40891;47.242;8.648;2023-02-23T12:45:03;95852.38;;;31.71;23.48
54994;BME280;40891;47.242;8.648;2023-02-23T12:47:42;95857.41;;;32.81;21.50
54994;BME280;40891;47.242;8.648;2023-02-23T12:50:31;95847.84;;;32.17;21.07
54994;BME280;40891;47.242;8.648;2023-02-23T12:53:08;95856.16;;;30.41;23.86
54994;BME280;40891;47.242;8.648;2023-02-23T12:55:57;95845.34;;;31.83;22.31
54994;BME280;40891;47.242;8.648;2023-02-23T12:58:33;95846.31;;;31.57;22.02
54994;BME280;40891;47.242;8.648;2023-02-23T13:01:05;95850.22;;;32.31;22.19
54994;BME280;40891;47.242;8.648;2023-02-23T13:06:42;95850.88;;;31.31;22.28
54994;BME280;40891;47.242;8.648;2023-02-23T13:12:02;95835.41;;;33.40;21.06
54994;BME280;40891;47.242;8.648;2023-02-23T13:19:47;95835.16;;;34.36;19.01
54994;BME280;40891;47.242;8.648;2023-02-23T13:22:29;95842.97;;;32.30;20.91
54994;BME280;40891;47.242;8.648;2023-02-23T13:24:59;95833.19;;;31.44;22.25
54994;BME280;40891;47.242;8.648;2023-02-23T13:27:34;95842.94;;;30.74;22.88
54994;BME280;40891;47.242;8.648;2023-02-23T13:30:02;95844.34;;;31.59;21.94
54994;BME280;40891;47.242;8.648;2023-02-23T13:32:30;95831.97;;;31.47;22.38
54994;BME280;40891;47.242;8.648;2023-02-23T13:35:00;95831.91;;;32.26;22.15
54994;BME280;40891;47.242;8.648;2023-02-23T13:37:42;95824.25;;;32.92;21.19
54994;BME280;40891;47.242;8.648;2023-02-23T13:48:58;95839.44;;;30.11;23.33
54994;BME280;40891;47.242;8.648;2023-02-23T13:51:48;95828.19;;;31.16;22.44
54994;BME280;40891;47.242;8.648;2023-02-23T13:56:47;95821.47;;;31.71;21.01
54994;BME280;40891;47.242;8.648;2023-02-23T13:59:41;95821.94;;;33.21;20.20
54994;BME280;40891;47.242;8.648;2023-02-23T14:02:30;95813.38;;;34.00;18.49
54994;BME280;40891;47.242;8.648;2023-02-23T14:05:17;95816.09;;;32.67;19.47
54994;BME280;40891;47.242;8.648;2023-02-23T14:07:46;95809.50;;;31.75;20.39
54994;BME280;40891;47.242;8.648;2023-02-23T14:10:19;95815.66;;;32.61;20.04
54994;BME280;40891;47.242;8.648;2023-02-23T14:15:46;95815.13;;;32.96;19.55
54994;BME280;40891;47.242;8.648;2023-02-23T14:20:57;95809.09;;;31.59;21.15
54994;BME280;40891;47.242;8.648;2023-02-23T14:23:29;95823.63;;;30.84;21.48
54994;BME280;40891;47.242;8.648;2023-02-23T14:26:36;95808.75;;;32.76;19.39
54994;BME280;40891;47.242;8.648;2023-02-23T14:29:23;95819.59;;;31.85;20.44
54994;BME280;40891;47.242;8.648;2023-02-23T14:34:59;95824.56;;;31.06;20.42
54994;BME280;40891;47.242;8.648;2023-02-23T14:42:29;95804.09;;;32.09;20.15
54994;BME280;40891;47.242;8.648;2023-02-23T14:44:57;95799.31;;;31.93;21.28
54994;BME280;40891;47.242;8.648;2023-02-23T14:47:26;95813.97;;;30.89;21.59
54994;BME280;40891;47.242;8.648;2023-02-23T14:50:00;95801.84;;;31.58;20.79
54994;BME280;40891;47.242;8.648;2023-02-23T14:52:28;95801.16;;;31.79;20.56
54994;BME280;40891;47.242;8.648;2023-02-23T14:55:27;95812.59;;;30.25;21.84
54994;BME280;40891;47.242;8.648;2023-02-23T14:57:52;95816.09;;;29.88;22.67